sensor_id;sensor_type;location;lat;lon;timestamp;temperature;humidity
52859;DHT22;38721;53.098;6.596;2023-07-02T00:00:04;15.60;99.90
52859;DHT22;38721;53.098;6.596;2023-07-02T00:02:30;15.60;99.90
52859;DHT22;38721;53.098;6.596;2023-07-02T00:04:56;15.60;99.90
52859;DHT22;38721;53.098;6.596;2023-07-02T00:07:22;15.60;99.90
52859;DHT22;38721;53.098;6.596;2023-07-02T00:09:48;15.60;99.90
52859;DHT22;38721;53.098;6.596;2023-07-02T00:12:14;15.60;99.90
52859;DHT22;38721;53.098;6.596;2023-07-02T00:14:40;15.60;99.90
52859;DHT22;38721;53.098;6.596;2023-07-02T00:17:05;15.50;99.90
52859;DHT22;38721;53.098;6.596;2023-07-02T00:19:31;15.60;99.90
52859;DHT22;38721;53.098;6.596;2023-07-02T00:21:57;15.50;99.90
52859;DHT22;38721;53.098;6.596;2023-07-02T00:24:23;15.50;99.90
52859;DHT22;38721;53.098;6.596;2023-07-02T00:26:52;15.50;99.90
52859;DHT22;38721;53.098;6.596;2023-07-02T00:29:18;15.50;99.90
52859;DHT22;38721;53.098;6.596;2023-07-02T00:31:43;15.40;99.90
52859;DHT22;38721;53.098;6.596;2023-07-02T00:34:09;15.40;99.90
52859;DHT22;38721;53.098;6.596;2023-07-02T00:36:34;15.40;99.90
52859;DHT22;38721;53.098;6.596;2023-07-02T00:39:00;15.40;99.90
52859;DHT22;38721;53.098;6.596;2023-07-02T00:41:26;15.40;99.90
52859;DHT22;38721;53.098;6.596;2023-07-02T00:43:51;15.30;99.90
52859;DHT22;38721;53.098;6.596;2023-07-02T00:46:24;15.30;99.90
52859;DHT22;38721;53.098;6.596;2023-07-02T00:48:52;15.30;99.90
52859;DHT22;38721;53.098;6.596;2023-07-02T00:51:21;15.20;99.90
52859;DHT22;38721;53.098;6.596;2023-07-02T00:53:49;15.20;99.90
52859;DHT22;38721;53.098;6.596;2023-07-02T00:56:15;15.20;99.90
52859;DHT22;38721;53.098;6.596;2023-07-02T00:58:43;15.30;99.90
52859;DHT22;38721;53.098;6.596;2023-07-02T01:01:18;15.20;99.90
52859;DHT22;38721;53.098;6.596;2023-07-02T01:04:03;15.20;99.90
52859;DHT22;38721;53.098;6.596;2023-07-02T01:06:34;15.20;99.90
52859;DHT22;38721;53.098;6.596;2023-07-02T01:09:02;15.10;99.90
52859;DHT22;38721;53.098;6.596;2023-07-02T01:11:31;15.00;99.90
52859;DHT22;38721;53.098;6.596;2023-07-02T01:16:46;15.00;99.90
52859;DHT22;38721;53.098;6.596;2023-07-02T01:19:44;15.00;99.90
52859;DHT22;38721;53.098;6.596;2023-07-02T01:22:11;14.90;99.90
52859;DHT22;38721;53.098;6.596;2023-07-02T01:24:43;14.90;99.90
52859;DHT22;38721;53.098;6.596;2023-07-02T01:27:09;14.90;99.90
52859;DHT22;38721;53.098;6.596;2023-07-02T01:29:35;14.70;99.90
52859;DHT22;38721;53.098;6.596;2023-07-02T01:32:05;14.70;99.90
52859;DHT22;38721;53.098;6.596;2023-07-02T01:34:30;14.70;99.90
52859;DHT22;38721;53.098;6.596;2023-07-02T01:36:56;14.70;99.90
52859;DHT22;38721;53.098;6.596;2023-07-02T01:39:22;14.60;99.90
52859;DHT22;38721;53.098;6.596;2023-07-02T01:44:18;14.50;99.90
52859;DHT22;38721;53.098;6.596;2023-07-02T01:46:44;14.50;99.90
52859;DHT22;38721;53.098;6.596;2023-07-02T01:49:10;14.40;99.90
52859;DHT22;38721;53.098;6.596;2023-07-02T01:51:36;14.30;99.90
52859;DHT22;38721;53.098;6.596;2023-07-02T01:54:01;14.40;99.90
52859;DHT22;38721;53.098;6.596;2023-07-02T01:56:27;14.40;99.90
52859;DHT22;38721;53.098;6.596;2023-07-02T01:58:54;14.40;99.90
52859;DHT22;38721;53.098;6.596;2023-07-02T02:01:19;14.30;99.90
52859;DHT22;38721;53.098;6.596;2023-07-02T02:03:45;14.30;99.90
52859;DHT22;38721;53.098;6.596;2023-07-02T02:06:11;14.20;99.90
52859;DHT22;38721;53.098;6.596;2023-07-02T02:08:36;14.20;99.90
52859;DHT22;38721;53.098;6.596;2023-07-02T02:11:02;14.20;99.90
52859;DHT22;38721;53.098;6.596;2023-07-02T02:13:28;14.20;99.90
52859;DHT22;38721;53.098;6.596;2023-07-02T02:15:54;14.20;99.90
52859;DHT22;38721;53.098;6.596;2023-07-02T02:18:20;14.20;99.90
52859;DHT22;38721;53.098;6.596;2023-07-02T02:20:45;14.00;99.90
52859;DHT22;38721;53.098;6.596;2023-07-02T02:23:11;14.10;99.90
52859;DHT22;38721;53.098;6.596;2023-07-02T02:25:37;14.00;99.90
52859;DHT22;38721;53.098;6.596;2023-07-02T02:28:03;14.00;99.90
52859;DHT22;38721;53.098;6.596;2023-07-02T02:30:28;13.90;99.90
52859;DHT22;38721;53.098;6.596;2023-07-02T02:32:54;13.80;99.90
52859;DHT22;38721;53.098;6.596;2023-07-02T02:35:20;14.00;99.90
52859;DHT22;38721;53.098;6.596;2023-07-02T02:37:45;14.00;99.90
52859;DHT22;38721;53.098;6.596;2023-07-02T02:40:11;14.00;99.90
52859;DHT22;38721;53.098;6.596;2023-07-02T02:42:38;13.90;99.90
52859;DHT22;38721;53.098;6.596;2023-07-02T02:45:05;13.80;99.90
52859;DHT22;38721;53.098;6.596;2023-07-02T02:47:30;13.90;99.90
52859;DHT22;38721;53.098;6.596;2023-07-02T02:49:56;13.90;99.90
52859;DHT22;38721;53.098;6.596;2023-07-02T02:52:22;13.90;99.90
52859;DHT22;38721;53.098;6.596;2023-07-02T02:54:47;13.80;99.90
52859;DHT22;38721;53.098;6.596;2023-07-02T02:57:14;13.80;99.90
52859;DHT22;38721;53.098;6.596;2023-07-02T02:59:40;13.80;99.90
52859;DHT22;38721;53.098;6.596;2023-07-02T03:02:05;13.80;99.90
52859;DHT22;38721;53.098;6.596;2023-07-02T03:04:31;13.80;99.90
52859;DHT22;38721;53.098;6.596;2023-07-02T03:06:57;13.70;99.90
52859;DHT22;38721;53.098;6.596;2023-07-02T03:09:22;13.70;99.90
52859;DHT22;38721;53.098;6.596;2023-07-02T03:11:48;13.70;99.90
52859;DHT22;38721;53.098;6.596;2023-07-02T03:14:14;13.60;99.90
52859;DHT22;38721;53.098;6.596;2023-07-02T03:16:43;13.50;99.90
52859;DHT22;38721;53.098;6.596;2023-07-02T03:19:10;13.50;99.90
52859;DHT22;38721;53.098;6.596;2023-07-02T03:21:36;13.50;99.90
52859;DHT22;38721;53.098;6.596;2023-07-02T03:24:02;13.50;99.90
52859;DHT22;38721;53.098;6.596;2023-07-02T03:26:27;13.40;99.90
52859;DHT22;38721;53.098;6.596;2023-07-02T03:28:53;13.40;99.90
52859;DHT22;38721;53.098;6.596;2023-07-02T03:31:19;13.60;99.90
52859;DHT22;38721;53.098;6.596;2023-07-02T03:33:45;13.60;99.90
52859;DHT22;38721;53.098;6.596;2023-07-02T03:36:11;13.70;99.90
52859;DHT22;38721;53.098;6.596;2023-07-02T03:38:37;13.60;99.90
52859;DHT22;38721;53.098;6.596;2023-07-02T03:41:02;13.70;99.90
52859;DHT22;38721;53.098;6.596;2023-07-02T03:43:28;13.70;99.90
52859;DHT22;38721;53.098;6.596;2023-07-02T03:45:53;13.80;99.90
52859;DHT22;38721;53.098;6.596;2023-07-02T03:48:19;13.80;99.90
52859;DHT22;38721;53.098;6.596;2023-07-02T03:50:45;13.80;99.90
52859;DHT22;38721;53.098;6.596;2023-07-02T03:53:14;13.80;99.90
52859;DHT22;38721;53.098;6.596;2023-07-02T03:55:39;13.80;99.90
52859;DHT22;38721;53.098;6.596;2023-07-02T03:58:05;13.80;99.90
52859;DHT22;38721;53.098;6.596;2023-07-02T04:00:31;13.90;99.90
52859;DHT22;38721;53.098;6.596;2023-07-02T04:02:58;13.90;99.90
52859;DHT22;38721;53.098;6.596;2023-07-02T04:05:23;13.90;99.90
52859;DHT22;38721;53.098;6.596;2023-07-02T04:07:49;14.00;99.90
52859;DHT22;38721;53.098;6.596;2023-07-02T04:10:14;14.00;99.90
52859;DHT22;38721;53.098;6.596;2023-07-02T04:12:40;14.00;99.90
52859;DHT22;38721;53.098;6.596;2023-07-02T04:15:09;14.00;99.90
52859;DHT22;38721;53.098;6.596;2023-07-02T04:17:35;14.00;99.90
52859;DHT22;38721;53.098;6.596;2023-07-02T04:20:02;14.00;99.90
52859;DHT22;38721;53.098;6.596;2023-07-02T04:22:29;14.00;99.90
52859;DHT22;38721;53.098;6.596;2023-07-02T04:24:55;14.10;99.90
52859;DHT22;38721;53.098;6.596;2023-07-02T04:27:21;14.10;99.90
52859;DHT22;38721;53.098;6.596;2023-07-02T04:29:47;14.20;99.90
52859;DHT22;38721;53.098;6.596;2023-07-02T04:32:13;14.20;99.90
52859;DHT22;38721;53.098;6.596;2023-07-02T04:34:38;14.20;99.90
52859;DHT22;38721;53.098;6.596;2023-07-02T04:37:05;14.20;99.90
52859;DHT22;38721;53.098;6.596;2023-07-02T04:39:31;14.10;99.90
52859;DHT22;38721;53.098;6.596;2023-07-02T04:41:56;14.10;99.90
52859;DHT22;38721;53.098;6.596;2023-07-02T04:44:22;14.10;99.90
52859;DHT22;38721;53.098;6.596;2023-07-02T04:46:58;14.00;99.90
52859;DHT22;38721;53.098;6.596;2023-07-02T04:49:24;14.10;99.90
52859;DHT22;38721;53.098;6.596;2023-07-02T04:51:50;14.20;99.90
52859;DHT22;38721;53.098;6.596;2023-07-02T04:54:25;14.30;99.90
52859;DHT22;38721;53.098;6.596;2023-07-02T04:56:50;14.50;99.90
52859;DHT22;38721;53.098;6.596;2023-07-02T04:59:16;14.60;99.90
52859;DHT22;38721;53.098;6.596;2023-07-02T05:01:42;14.60;99.90
52859;DHT22;38721;53.098;6.596;2023-07-02T05:04:13;14.70;99.90
52859;DHT22;38721;53.098;6.596;2023-07-02T05:06:38;14.80;99.90
52859;DHT22;38721;53.098;6.596;2023-07-02T05:09:04;15.00;99.90
52859;DHT22;38721;53.098;6.596;2023-07-02T05:11:30;15.10;99.90
52859;DHT22;38721;53.098;6.596;2023-07-02T05:13:56;15.30;99.90
52859;DHT22;38721;53.098;6.596;2023-07-02T05:16:21;15.40;99.90
52859;DHT22;38721;53.098;6.596;2023-07-02T05:18:47;15.50;99.90
52859;DHT22;38721;53.098;6.596;2023-07-02T05:21:17;15.50;99.90
52859;DHT22;38721;53.098;6.596;2023-07-02T05:23:43;15.50;99.90
52859;DHT22;38721;53.098;6.596;2023-07-02T05:26:09;15.60;99.90
52859;DHT22;38721;53.098;6.596;2023-07-02T05:28:34;15.70;99.90
52859;DHT22;38721;53.098;6.596;2023-07-02T05:31:00;15.80;99.90
52859;DHT22;38721;53.098;6.596;2023-07-02T05:33:26;15.70;99.90
52859;DHT22;38721;53.098;6.596;2023-07-02T05:35:51;15.70;99.90
52859;DHT22;38721;53.098;6.596;2023-07-02T05:38:18;15.90;99.90
52859;DHT22;38721;53.098;6.596;2023-07-02T05:40:45;16.00;99.90
52859;DHT22;38721;53.098;6.596;2023-07-02T05:43:11;16.10;99.90
52859;DHT22;38721;53.098;6.596;2023-07-02T05:45:36;16.20;99.90
52859;DHT22;38721;53.098;6.596;2023-07-02T05:48:02;16.30;99.90
52859;DHT22;38721;53.098;6.596;2023-07-02T05:50:28;16.40;99.90
52859;DHT22;38721;53.098;6.596;2023-07-02T05:52:54;16.40;99.90
52859;DHT22;38721;53.098;6.596;2023-07-02T05:55:19;16.30;99.90
52859;DHT22;38721;53.098;6.596;2023-07-02T05:57:46;16.20;99.90
52859;DHT22;38721;53.098;6.596;2023-07-02T06:00:12;16.20;99.90
52859;DHT22;38721;53.098;6.596;2023-07-02T06:02:38;16.10;99.90
52859;DHT22;38721;53.098;6.596;2023-07-02T06:05:04;16.00;99.90
52859;DHT22;38721;53.098;6.596;2023-07-02T06:07:30;15.90;99.90
52859;DHT22;38721;53.098;6.596;2023-07-02T06:09:55;15.90;99.90
52859;DHT22;38721;53.098;6.596;2023-07-02T06:12:22;15.90;99.90
52859;DHT22;38721;53.098;6.596;2023-07-02T06:14:48;15.80;99.90
52859;DHT22;38721;53.098;6.596;2023-07-02T06:17:14;15.80;99.90
52859;DHT22;38721;53.098;6.596;2023-07-02T06:19:49;15.90;99.90
52859;DHT22;38721;53.098;6.596;2023-07-02T06:22:15;16.20;99.90
52859;DHT22;38721;53.098;6.596;2023-07-02T06:24:40;16.30;99.90
52859;DHT22;38721;53.098;6.596;2023-07-02T06:27:06;16.50;99.90
52859;DHT22;38721;53.098;6.596;2023-07-02T06:29:31;16.60;99.90
52859;DHT22;38721;53.098;6.596;2023-07-02T06:31:57;16.70;99.90
52859;DHT22;38721;53.098;6.596;2023-07-02T06:34:23;16.80;99.90
52859;DHT22;38721;53.098;6.596;2023-07-02T06:36:48;16.90;99.90
52859;DHT22;38721;53.098;6.596;2023-07-02T06:39:14;16.90;99.90
52859;DHT22;38721;53.098;6.596;2023-07-02T06:41:40;17.20;99.90
52859;DHT22;38721;53.098;6.596;2023-07-02T06:44:05;17.40;99.90
52859;DHT22;38721;53.098;6.596;2023-07-02T06:46:32;17.00;99.90
52859;DHT22;38721;53.098;6.596;2023-07-02T06:48:58;16.70;99.90
52859;DHT22;38721;53.098;6.596;2023-07-02T06:51:23;16.90;99.90
52859;DHT22;38721;53.098;6.596;2023-07-02T06:53:51;17.20;99.90
52859;DHT22;38721;53.098;6.596;2023-07-02T06:56:17;17.30;99.90
52859;DHT22;38721;53.098;6.596;2023-07-02T06:58:43;17.20;99.90
52859;DHT22;38721;53.098;6.596;2023-07-02T07:01:09;17.10;99.90
52859;DHT22;38721;53.098;6.596;2023-07-02T07:03:35;17.40;99.90
52859;DHT22;38721;53.098;6.596;2023-07-02T07:06:03;17.30;99.90
52859;DHT22;38721;53.098;6.596;2023-07-02T07:08:29;16.90;99.90
52859;DHT22;38721;53.098;6.596;2023-07-02T07:10:55;16.80;99.90
52859;DHT22;38721;53.098;6.596;2023-07-02T07:13:21;16.50;99.90
52859;DHT22;38721;53.098;6.596;2023-07-02T07:15:46;16.80;99.90
52859;DHT22;38721;53.098;6.596;2023-07-02T07:18:12;17.20;99.90
52859;DHT22;38721;53.098;6.596;2023-07-02T07:20:41;17.50;99.90
52859;DHT22;38721;53.098;6.596;2023-07-02T07:23:07;17.80;99.90
52859;DHT22;38721;53.098;6.596;2023-07-02T07:25:33;17.60;99.90
52859;DHT22;38721;53.098;6.596;2023-07-02T07:28:00;17.50;99.90
52859;DHT22;38721;53.098;6.596;2023-07-02T07:30:26;17.60;99.90
52859;DHT22;38721;53.098;6.596;2023-07-02T07:32:52;17.60;99.90
52859;DHT22;38721;53.098;6.596;2023-07-02T07:35:19;17.70;99.90
52859;DHT22;38721;53.098;6.596;2023-07-02T07:37:46;17.70;99.90
52859;DHT22;38721;53.098;6.596;2023-07-02T07:40:12;17.30;99.90
52859;DHT22;38721;53.098;6.596;2023-07-02T07:42:38;17.20;99.90
52859;DHT22;38721;53.098;6.596;2023-07-02T07:45:04;17.40;99.90
52859;DHT22;38721;53.098;6.596;2023-07-02T07:47:30;17.70;99.90
52859;DHT22;38721;53.098;6.596;2023-07-02T07:49:55;17.90;99.90
52859;DHT22;38721;53.098;6.596;2023-07-02T07:52:21;17.90;20.10
52859;DHT22;38721;53.098;6.596;2023-07-02T07:54:47;17.90;99.90
52859;DHT22;38721;53.098;6.596;2023-07-02T07:57:18;17.70;99.90
52859;DHT22;38721;53.098;6.596;2023-07-02T07:59:44;17.80;1.00
52859;DHT22;38721;53.098;6.596;2023-07-02T08:02:09;17.80;99.90
52859;DHT22;38721;53.098;6.596;2023-07-02T08:04:35;17.80;99.90
52859;DHT22;38721;53.098;6.596;2023-07-02T08:07:01;17.70;99.90
52859;DHT22;38721;53.098;6.596;2023-07-02T08:09:30;18.10;99.90
52859;DHT22;38721;53.098;6.596;2023-07-02T08:11:55;18.10;99.90
52859;DHT22;38721;53.098;6.596;2023-07-02T08:14:21;18.20;2.20
52859;DHT22;38721;53.098;6.596;2023-07-02T08:16:47;18.70;99.90
52859;DHT22;38721;53.098;6.596;2023-07-02T08:19:13;18.80;1.00
52859;DHT22;38721;53.098;6.596;2023-07-02T08:21:38;18.50;99.90
52859;DHT22;38721;53.098;6.596;2023-07-02T08:24:04;18.10;99.90
52859;DHT22;38721;53.098;6.596;2023-07-02T08:26:31;18.00;99.90
52859;DHT22;38721;53.098;6.596;2023-07-02T08:28:57;18.10;99.90
52859;DHT22;38721;53.098;6.596;2023-07-02T08:31:23;18.10;99.90
52859;DHT22;38721;53.098;6.596;2023-07-02T08:33:48;18.20;99.90
52859;DHT22;38721;53.098;6.596;2023-07-02T08:36:14;18.50;99.90
52859;DHT22;38721;53.098;6.596;2023-07-02T08:38:40;18.20;1.00
52859;DHT22;38721;53.098;6.596;2023-07-02T08:41:07;17.80;99.90
52859;DHT22;38721;53.098;6.596;2023-07-02T08:43:34;17.50;99.90
52859;DHT22;38721;53.098;6.596;2023-07-02T08:46:01;17.30;99.90
52859;DHT22;38721;53.098;6.596;2023-07-02T08:48:27;17.30;99.90
52859;DHT22;38721;53.098;6.596;2023-07-02T08:50:55;17.80;99.90
52859;DHT22;38721;53.098;6.596;2023-07-02T08:53:21;18.00;99.90
52859;DHT22;38721;53.098;6.596;2023-07-02T08:55:51;17.70;99.90
52859;DHT22;38721;53.098;6.596;2023-07-02T08:58:16;17.60;99.90
52859;DHT22;38721;53.098;6.596;2023-07-02T09:01:08;17.40;99.90
52859;DHT22;38721;53.098;6.596;2023-07-02T09:03:35;17.10;99.90
52859;DHT22;38721;53.098;6.596;2023-07-02T09:06:06;17.20;99.90
52859;DHT22;38721;53.098;6.596;2023-07-02T09:08:33;17.30;99.90
52859;DHT22;38721;53.098;6.596;2023-07-02T09:13:49;17.60;99.90
52859;DHT22;38721;53.098;6.596;2023-07-02T09:16:33;17.50;99.90
52859;DHT22;38721;53.098;6.596;2023-07-02T09:19:06;17.40;99.90
52859;DHT22;38721;53.098;6.596;2023-07-02T09:21:48;17.30;99.90
52859;DHT22;38721;53.098;6.596;2023-07-02T09:24:19;17.10;99.90
52859;DHT22;38721;53.098;6.596;2023-07-02T09:26:50;17.00;99.90
52859;DHT22;38721;53.098;6.596;2023-07-02T09:29:20;17.10;99.90
52859;DHT22;38721;53.098;6.596;2023-07-02T09:31:47;17.40;99.90
52859;DHT22;38721;53.098;6.596;2023-07-02T09:34:14;18.20;99.90
52859;DHT22;38721;53.098;6.596;2023-07-02T09:36:40;18.10;99.90
52859;DHT22;38721;53.098;6.596;2023-07-02T09:39:13;18.00;99.90
52859;DHT22;38721;53.098;6.596;2023-07-02T09:41:43;18.20;99.90
52859;DHT22;38721;53.098;6.596;2023-07-02T09:44:10;18.10;99.90
52859;DHT22;38721;53.098;6.596;2023-07-02T09:46:40;18.20;99.90
52859;DHT22;38721;53.098;6.596;2023-07-02T09:49:12;18.20;99.90
52859;DHT22;38721;53.098;6.596;2023-07-02T09:51:40;18.20;99.90
52859;DHT22;38721;53.098;6.596;2023-07-02T09:54:06;18.10;99.90
52859;DHT22;38721;53.098;6.596;2023-07-02T09:56:31;18.50;99.90
52859;DHT22;38721;53.098;6.596;2023-07-02T09:58:57;18.70;99.90
52859;DHT22;38721;53.098;6.596;2023-07-02T10:01:22;18.20;1.00
52859;DHT22;38721;53.098;6.596;2023-07-02T10:03:48;18.30;99.90
52859;DHT22;38721;53.098;6.596;2023-07-02T10:06:14;18.20;99.90
52859;DHT22;38721;53.098;6.596;2023-07-02T10:08:39;18.00;99.90
52859;DHT22;38721;53.098;6.596;2023-07-02T10:11:09;18.10;99.90
52859;DHT22;38721;53.098;6.596;2023-07-02T10:13:35;17.90;99.90
52859;DHT22;38721;53.098;6.596;2023-07-02T10:16:02;17.90;99.90
52859;DHT22;38721;53.098;6.596;2023-07-02T10:18:28;18.60;99.90
52859;DHT22;38721;53.098;6.596;2023-07-02T10:20:54;18.50;99.90
52859;DHT22;38721;53.098;6.596;2023-07-02T10:23:19;19.00;99.90
52859;DHT22;38721;53.098;6.596;2023-07-02T10:25:45;18.40;99.90
52859;DHT22;38721;53.098;6.596;2023-07-02T10:28:19;18.20;1.00
52859;DHT22;38721;53.098;6.596;2023-07-02T10:30:48;18.10;99.90
52859;DHT22;38721;53.098;6.596;2023-07-02T10:33:17;18.80;1.00
52859;DHT22;38721;53.098;6.596;2023-07-02T10:35:46;19.20;99.90
52859;DHT22;38721;53.098;6.596;2023-07-02T10:38:24;19.30;99.90
52859;DHT22;38721;53.098;6.596;2023-07-02T10:40:58;19.70;99.90
52859;DHT22;38721;53.098;6.596;2023-07-02T10:43:30;19.40;99.90
52859;DHT22;38721;53.098;6.596;2023-07-02T10:45:57;19.20;99.90
52859;DHT22;38721;53.098;6.596;2023-07-02T10:48:25;18.80;99.90
52859;DHT22;38721;53.098;6.596;2023-07-02T10:50:51;18.60;29.40
52859;DHT22;38721;53.098;6.596;2023-07-02T10:53:18;18.80;99.90
52859;DHT22;38721;53.098;6.596;2023-07-02T10:55:44;18.90;99.90
52859;DHT22;38721;53.098;6.596;2023-07-02T10:58:11;18.90;99.90
52859;DHT22;38721;53.098;6.596;2023-07-02T11:00:47;18.80;99.90
52859;DHT22;38721;53.098;6.596;2023-07-02T11:03:24;18.60;99.90
52859;DHT22;38721;53.098;6.596;2023-07-02T11:05:51;18.50;99.90
52859;DHT22;38721;53.098;6.596;2023-07-02T11:08:17;18.80;99.90
52859;DHT22;38721;53.098;6.596;2023-07-02T11:10:43;19.50;19.00
52859;DHT22;38721;53.098;6.596;2023-07-02T11:13:17;19.30;99.90
52859;DHT22;38721;53.098;6.596;2023-07-02T11:15:43;18.80;99.90
52859;DHT22;38721;53.098;6.596;2023-07-02T11:18:17;18.60;1.00
52859;DHT22;38721;53.098;6.596;2023-07-02T11:20:46;18.60;99.90
52859;DHT22;38721;53.098;6.596;2023-07-02T11:23:25;18.30;99.90
52859;DHT22;38721;53.098;6.596;2023-07-02T11:26:02;18.60;99.90
52859;DHT22;38721;53.098;6.596;2023-07-02T11:28:31;18.60;1.00
52859;DHT22;38721;53.098;6.596;2023-07-02T11:30:58;18.30;99.90
52859;DHT22;38721;53.098;6.596;2023-07-02T11:33:37;18.10;99.90
52859;DHT22;38721;53.098;6.596;2023-07-02T11:36:04;18.10;99.90
52859;DHT22;38721;53.098;6.596;2023-07-02T11:38:30;18.20;1.00
52859;DHT22;38721;53.098;6.596;2023-07-02T11:40:56;18.30;1.00
52859;DHT22;38721;53.098;6.596;2023-07-02T11:43:21;18.10;99.90
52859;DHT22;38721;53.098;6.596;2023-07-02T11:45:47;18.20;99.90
52859;DHT22;38721;53.098;6.596;2023-07-02T11:48:13;18.10;99.90
52859;DHT22;38721;53.098;6.596;2023-07-02T11:50:39;18.40;69.40
52859;DHT22;38721;53.098;6.596;2023-07-02T11:53:04;18.10;99.90
52859;DHT22;38721;53.098;6.596;2023-07-02T11:55:30;18.40;99.90
52859;DHT22;38721;53.098;6.596;2023-07-02T11:57:58;18.90;1.00
52859;DHT22;38721;53.098;6.596;2023-07-02T12:00:23;19.20;99.90
52859;DHT22;38721;53.098;6.596;2023-07-02T12:02:49;18.90;99.90
52859;DHT22;38721;53.098;6.596;2023-07-02T12:05:15;18.60;99.90
52859;DHT22;38721;53.098;6.596;2023-07-02T12:07:40;18.40;99.90
52859;DHT22;38721;53.098;6.596;2023-07-02T12:10:07;18.10;1.00
52859;DHT22;38721;53.098;6.596;2023-07-02T12:12:33;18.10;99.90
52859;DHT22;38721;53.098;6.596;2023-07-02T12:14:59;18.20;1.00
52859;DHT22;38721;53.098;6.596;2023-07-02T12:17:24;18.60;1.00
52859;DHT22;38721;53.098;6.596;2023-07-02T12:19:50;19.00;1.00
52859;DHT22;38721;53.098;6.596;2023-07-02T12:22:16;18.60;99.90
52859;DHT22;38721;53.098;6.596;2023-07-02T12:24:43;18.60;99.90
52859;DHT22;38721;53.098;6.596;2023-07-02T12:27:09;18.60;99.90
52859;DHT22;38721;53.098;6.596;2023-07-02T12:29:36;18.80;99.90
52859;DHT22;38721;53.098;6.596;2023-07-02T12:32:01;18.50;99.90
52859;DHT22;38721;53.098;6.596;2023-07-02T12:34:27;18.40;1.00
52859;DHT22;38721;53.098;6.596;2023-07-02T12:36:55;18.30;99.90
52859;DHT22;38721;53.098;6.596;2023-07-02T12:39:20;18.50;99.90
52859;DHT22;38721;53.098;6.596;2023-07-02T12:41:46;18.80;99.90
52859;DHT22;38721;53.098;6.596;2023-07-02T12:44:13;19.20;99.90
52859;DHT22;38721;53.098;6.596;2023-07-02T12:46:38;19.50;92.10
52859;DHT22;38721;53.098;6.596;2023-07-02T12:49:04;20.00;1.00
52859;DHT22;38721;53.098;6.596;2023-07-02T12:51:30;20.80;99.90
52859;DHT22;38721;53.098;6.596;2023-07-02T12:53:55;21.60;99.90
52859;DHT22;38721;53.098;6.596;2023-07-02T12:56:21;21.00;1.00
52859;DHT22;38721;53.098;6.596;2023-07-02T12:58:50;20.10;9.30
52859;DHT22;38721;53.098;6.596;2023-07-02T13:01:17;19.60;99.90
52859;DHT22;38721;53.098;6.596;2023-07-02T13:03:46;19.10;99.90
52859;DHT22;38721;53.098;6.596;2023-07-02T13:06:13;19.00;99.90
52859;DHT22;38721;53.098;6.596;2023-07-02T13:08:39;18.50;1.00
52859;DHT22;38721;53.098;6.596;2023-07-02T13:11:05;18.50;9.60
52859;DHT22;38721;53.098;6.596;2023-07-02T13:13:30;18.10;99.90
52859;DHT22;38721;53.098;6.596;2023-07-02T13:15:56;18.10;99.90
52859;DHT22;38721;53.098;6.596;2023-07-02T13:18:23;18.60;1.00
52859;DHT22;38721;53.098;6.596;2023-07-02T13:20:48;18.80;99.90
52859;DHT22;38721;53.098;6.596;2023-07-02T13:23:14;19.10;99.90
52859;DHT22;38721;53.098;6.596;2023-07-02T13:25:40;19.10;99.90
52859;DHT22;38721;53.098;6.596;2023-07-02T13:28:05;19.50;99.90
52859;DHT22;38721;53.098;6.596;2023-07-02T13:30:33;19.30;99.90
52859;DHT22;38721;53.098;6.596;2023-07-02T13:32:59;19.10;99.90
52859;DHT22;38721;53.098;6.596;2023-07-02T13:35:25;18.90;99.00
52859;DHT22;38721;53.098;6.596;2023-07-02T13:37:50;18.60;99.90
52859;DHT22;38721;53.098;6.596;2023-07-02T13:40:16;18.40;99.90
52859;DHT22;38721;53.098;6.596;2023-07-02T13:42:42;18.40;99.90
52859;DHT22;38721;53.098;6.596;2023-07-02T13:45:09;18.70;99.90
52859;DHT22;38721;53.098;6.596;2023-07-02T13:47:37;18.80;99.90
52859;DHT22;38721;53.098;6.596;2023-07-02T13:50:03;18.90;99.90
52859;DHT22;38721;53.098;6.596;2023-07-02T13:52:30;18.50;99.90
52859;DHT22;38721;53.098;6.596;2023-07-02T13:54:55;18.40;1.00
52859;DHT22;38721;53.098;6.596;2023-07-02T13:57:22;18.40;1.00
52859;DHT22;38721;53.098;6.596;2023-07-02T13:59:48;18.30;99.90
52859;DHT22;38721;53.098;6.596;2023-07-02T14:02:13;18.30;99.90
52859;DHT22;38721;53.098;6.596;2023-07-02T14:04:39;19.10;1.00
52859;DHT22;38721;53.098;6.596;2023-07-02T14:07:05;19.60;47.60
52859;DHT22;38721;53.098;6.596;2023-07-02T14:09:31;19.40;1.00
52859;DHT22;38721;53.098;6.596;2023-07-02T14:11:56;18.70;99.90
52859;DHT22;38721;53.098;6.596;2023-07-02T14:14:22;18.50;19.80
52859;DHT22;38721;53.098;6.596;2023-07-02T14:16:48;18.40;99.90
52859;DHT22;38721;53.098;6.596;2023-07-02T14:19:14;18.00;80.30
52859;DHT22;38721;53.098;6.596;2023-07-02T14:21:40;17.90;99.90
52859;DHT22;38721;53.098;6.596;2023-07-02T14:24:06;18.00;1.00
52859;DHT22;38721;53.098;6.596;2023-07-02T14:26:32;17.90;99.90
52859;DHT22;38721;53.098;6.596;2023-07-02T14:28:58;18.40;1.00
52859;DHT22;38721;53.098;6.596;2023-07-02T14:31:24;18.20;1.00
52859;DHT22;38721;53.098;6.596;2023-07-02T14:33:49;18.10;95.30
52859;DHT22;38721;53.098;6.596;2023-07-02T14:36:15;18.70;99.90
52859;DHT22;38721;53.098;6.596;2023-07-02T14:38:41;18.50;99.90
52859;DHT22;38721;53.098;6.596;2023-07-02T14:41:07;18.50;1.00
52859;DHT22;38721;53.098;6.596;2023-07-02T14:43:33;18.50;99.90
52859;DHT22;38721;53.098;6.596;2023-07-02T14:46:01;18.40;99.90
52859;DHT22;38721;53.098;6.596;2023-07-02T14:48:27;18.50;1.00
52859;DHT22;38721;53.098;6.596;2023-07-02T14:50:58;19.00;99.90
52859;DHT22;38721;53.098;6.596;2023-07-02T14:53:25;18.50;99.90
52859;DHT22;38721;53.098;6.596;2023-07-02T14:55:57;18.60;99.90
52859;DHT22;38721;53.098;6.596;2023-07-02T14:58:26;18.60;99.90
52859;DHT22;38721;53.098;6.596;2023-07-02T15:00:54;18.40;56.80
52859;DHT22;38721;53.098;6.596;2023-07-02T15:03:22;18.60;99.90
52859;DHT22;38721;53.098;6.596;2023-07-02T15:05:49;19.50;1.00
52859;DHT22;38721;53.098;6.596;2023-07-02T15:08:16;20.10;99.90
52859;DHT22;38721;53.098;6.596;2023-07-02T15:10:46;20.10;99.90
52859;DHT22;38721;53.098;6.596;2023-07-02T15:13:11;19.80;99.90
52859;DHT22;38721;53.098;6.596;2023-07-02T15:15:38;20.00;99.90
52859;DHT22;38721;53.098;6.596;2023-07-02T15:18:05;21.00;99.90
52859;DHT22;38721;53.098;6.596;2023-07-02T15:20:33;20.90;99.90
52859;DHT22;38721;53.098;6.596;2023-07-02T15:22:59;20.70;99.90
52859;DHT22;38721;53.098;6.596;2023-07-02T15:25:24;20.50;99.90
52859;DHT22;38721;53.098;6.596;2023-07-02T15:27:50;19.70;72.90
52859;DHT22;38721;53.098;6.596;2023-07-02T15:30:16;19.10;47.10
52859;DHT22;38721;53.098;6.596;2023-07-02T15:32:41;19.00;63.80
52859;DHT22;38721;53.098;6.596;2023-07-02T15:35:07;18.70;31.10
52859;DHT22;38721;53.098;6.596;2023-07-02T15:37:33;18.40;40.30